createdAt,value
2023-01-26T00:01:15.663Z,102558.09
2023-01-26T00:03:43.288Z,102572.47
2023-01-26T00:06:11.791Z,102572.47
2023-01-26T00:08:42.360Z,102559.88
2023-01-26T00:11:11.349Z,102560.06
2023-01-26T00:13:39.169Z,102557.88
2023-01-26T00:16:09.271Z,102558.16
2023-01-26T00:18:38.216Z,102558.28
2023-01-26T00:21:06.086Z,102556.94
2023-01-26T00:23:34.462Z,102555.94
2023-01-26T00:26:02.395Z,102549.88
2023-01-26T00:28:30.073Z,102552.09
2023-01-26T00:31:12.714Z,102549.66
2023-01-26T00:33:40.456Z,102557.94
2023-01-26T00:36:08.288Z,102547.91
2023-01-26T00:38:35.846Z,102531.38
2023-01-26T00:41:03.285Z,102536.19
2023-01-26T00:43:30.848Z,102534.13
2023-01-26T00:45:58.371Z,102543.00
2023-01-26T00:48:25.755Z,102538.28
2023-01-26T00:50:54.357Z,102532.75
2023-01-26T00:53:21.777Z,102527.31
2023-01-26T00:55:49.234Z,102521.94
2023-01-26T00:58:16.679Z,102522.69
2023-01-26T01:00:44.277Z,102514.25
2023-01-26T01:03:11.802Z,102506.59
2023-01-26T01:05:39.203Z,102506.38
2023-01-26T01:08:06.747Z,102504.50
2023-01-26T01:10:34.172Z,102509.53
2023-01-26T01:13:01.587Z,102516.91
2023-01-26T01:15:28.999Z,102506.16
2023-01-26T01:17:56.426Z,102505.97
2023-01-26T01:20:23.804Z,102510.50
2023-01-26T01:22:52.522Z,102517.00
2023-01-26T01:25:19.937Z,102513.25
2023-01-26T01:27:47.374Z,102505.19
2023-01-26T01:30:15.962Z,102511.69
2023-01-26T01:32:44.815Z,102512.28
2023-01-26T01:35:12.282Z,102509.34
2023-01-26T01:37:39.707Z,102510.91
2023-01-26T01:40:07.459Z,102508.56
2023-01-26T01:42:34.956Z,102495.72
2023-01-26T01:45:21.031Z,102502.63
2023-01-26T01:47:48.721Z,102502.44
2023-01-26T01:50:18.114Z,102509.91
2023-01-26T01:52:45.654Z,102505.19
2023-01-26T01:55:15.670Z,102505.28
2023-01-26T01:57:46.748Z,102494.97
2023-01-26T02:00:19.604Z,102495.94
2023-01-26T02:03:10.008Z,102498.88
2023-01-26T02:05:56.533Z,102498.00
2023-01-26T02:08:27.866Z,102491.59
2023-01-26T02:10:55.921Z,102496.31
2023-01-26T02:13:25.114Z,102494.66
2023-01-26T02:15:52.689Z,102493.97
2023-01-26T02:18:20.130Z,102496.16
2023-01-26T02:20:50.716Z,102497.31
2023-01-26T02:23:23.303Z,102498.69
2023-01-26T02:25:52.030Z,102502.63
2023-01-26T02:28:20.255Z,102497.53
2023-01-26T02:30:48.151Z,102495.72
2023-01-26T02:33:16.410Z,102500.84
2023-01-26T02:35:43.820Z,102489.84
2023-01-26T02:38:11.304Z,102494.16
2023-01-26T02:40:44.261Z,102495.84
2023-01-26T02:43:11.164Z,102487.38
2023-01-26T02:45:39.665Z,102504.78
2023-01-26T02:48:08.062Z,102490.53
2023-01-26T02:50:34.755Z,102486.28
2023-01-26T02:53:02.751Z,102500.78
2023-01-26T02:55:29.252Z,102502.25
2023-01-26T02:57:58.307Z,102507.16
2023-01-26T03:00:27.172Z,102505.03
2023-01-26T03:02:56.302Z,102503.81
2023-01-26T03:05:23.746Z,102506.69
2023-01-26T03:07:51.250Z,102504.22
2023-01-26T03:10:19.006Z,102508.16
2023-01-26T03:12:47.031Z,102503.53
2023-01-26T03:15:31.927Z,102514.06
2023-01-26T03:18:36.636Z,102504.22
2023-01-26T03:21:23.545Z,102506.88
2023-01-26T03:24:08.461Z,102511.50
2023-01-26T03:26:53.804Z,102499.69
2023-01-26T03:29:21.776Z,102499.88
2023-01-26T03:31:49.745Z,102492.81
2023-01-26T03:34:17.211Z,102497.94
2023-01-26T03:36:44.846Z,102496.34
2023-01-26T03:39:32.262Z,102505.81
2023-01-26T03:42:17.119Z,102500.47
2023-01-26T03:45:02.219Z,102502.16
2023-01-26T03:47:47.228Z,102497.63
2023-01-26T03:50:32.134Z,102494.56
2023-01-26T03:53:16.862Z,102495.34
2023-01-26T03:56:01.672Z,102497.63
2023-01-26T03:58:30.251Z,102502.22
2023-01-26T04:01:00.823Z,102501.38
2023-01-26T04:03:45.964Z,102495.53
2023-01-26T04:06:30.815Z,102492.88
2023-01-26T04:08:58.269Z,102495.75
2023-01-26T04:11:25.654Z,102493.00
2023-01-26T04:14:10.617Z,102497.09
2023-01-26T04:16:55.698Z,102497.31
2023-01-26T04:19:40.490Z,102505.78
2023-01-26T04:22:08.025Z,102505.09
2023-01-26T04:24:35.502Z,102500.16
2023-01-26T04:27:02.908Z,102504.22
2023-01-26T04:29:30.339Z,102506.19
2023-01-26T04:31:57.706Z,102506.34
2023-01-26T04:34:25.196Z,102505.38
2023-01-26T04:36:52.704Z,102494.56
2023-01-26T04:39:20.283Z,102494.66
2023-01-26T04:41:47.679Z,102489.63
2023-01-26T04:44:15.151Z,102495.72
2023-01-26T04:46:42.624Z,102487.84
2023-01-26T04:49:10.263Z,102488.63
2023-01-26T04:51:37.691Z,102495.34
2023-01-26T04:54:05.210Z,102489.44
2023-01-26T04:56:33.831Z,102482.34
2023-01-26T04:59:02.436Z,102489.94
2023-01-26T05:01:30.002Z,102485.88
2023-01-26T05:04:00.132Z,102449.28
2023-01-26T05:06:27.618Z,102480.34
2023-01-26T05:08:55.169Z,102492.25
2023-01-26T05:11:22.742Z,102474.28
2023-01-26T05:13:50.382Z,102483.91
2023-01-26T05:16:18.390Z,102479.56
2023-01-26T05:18:45.787Z,102474.44
2023-01-26T05:21:13.225Z,102473.38
2023-01-26T05:23:40.622Z,102469.16
2023-01-26T05:26:08.388Z,102469.31
2023-01-26T05:28:36.250Z,102464.78
2023-01-26T05:31:03.799Z,102472.81
2023-01-26T05:33:31.295Z,102472.81
2023-01-26T05:35:59.062Z,102475.59
2023-01-26T05:38:26.489Z,102483.16
2023-01-26T05:40:53.918Z,102480.91
2023-01-26T05:43:21.393Z,102482.84
2023-01-26T05:45:48.955Z,102483.22
2023-01-26T05:48:16.471Z,102482.34
2023-01-26T05:50:43.965Z,102488.19
2023-01-26T05:53:11.387Z,102483.41
2023-01-26T05:55:38.798Z,102487.13
2023-01-26T05:58:06.272Z,102488.91
2023-01-26T06:00:33.663Z,102484.06
2023-01-26T06:03:01.112Z,102486.06
2023-01-26T06:05:28.520Z,102488.53
2023-01-26T06:07:55.985Z,102490.81
2023-01-26T06:10:23.421Z,102481.66
2023-01-26T06:12:50.882Z,102496.03
2023-01-26T06:15:18.382Z,102491.00
2023-01-26T06:17:45.795Z,102494.25
2023-01-26T06:20:14.775Z,102494.25
2023-01-26T06:22:42.269Z,102501.94
2023-01-26T06:25:09.984Z,102500.53
2023-01-26T06:27:41.933Z,102503.72
2023-01-26T06:30:10.344Z,102509.84
2023-01-26T06:32:38.381Z,102500.38
2023-01-26T06:35:07.189Z,102507.06
2023-01-26T06:37:34.690Z,102509.22
2023-01-26T06:40:02.116Z,102504.28
2023-01-26T06:42:29.592Z,102514.91
2023-01-26T06:44:58.906Z,102517.47
2023-01-26T06:47:26.465Z,102517.06
2023-01-26T06:49:54.162Z,102489.53
2023-01-26T06:52:31.507Z,102518.81
2023-01-26T06:55:00.572Z,102517.06
2023-01-26T06:57:27.989Z,102530.88
2023-01-26T06:59:57.276Z,102531.81
2023-01-26T07:02:24.744Z,102524.31
2023-01-26T07:04:52.227Z,102535.44
2023-01-26T07:07:19.678Z,102530.50
2023-01-26T07:09:47.167Z,102534.94
2023-01-26T07:12:14.659Z,102535.81
2023-01-26T07:14:42.128Z,102536.03
2023-01-26T07:17:09.601Z,102532.16
2023-01-26T07:19:37.388Z,102533.91
2023-01-26T07:22:05.152Z,102527.22
2023-01-26T07:24:32.647Z,102539.41
2023-01-26T07:27:00.165Z,102544.72
2023-01-26T07:29:27.589Z,102547.34
2023-01-26T07:31:55.055Z,102544.47
2023-01-26T07:34:22.499Z,102549.16
2023-01-26T07:36:52.455Z,102557.91
2023-01-26T07:39:19.893Z,102558.00
2023-01-26T07:41:47.290Z,102558.19
2023-01-26T07:44:14.755Z,102558.38
2023-01-26T07:46:44.745Z,102562.34
2023-01-26T07:49:12.993Z,102559.44
2023-01-26T07:51:40.984Z,102549.69
2023-01-26T07:54:08.521Z,102549.56
2023-01-26T07:56:36.283Z,102569.56
2023-01-26T07:59:04.060Z,102562.56
2023-01-26T08:01:31.520Z,102561.94
2023-01-26T08:03:58.978Z,102570.59
2023-01-26T08:06:26.503Z,102565.47
2023-01-26T08:08:54.889Z,102567.25
2023-01-26T08:11:24.384Z,102570.78
2023-01-26T08:13:51.846Z,102572.53
2023-01-26T08:16:19.779Z,102569.34
2023-01-26T08:18:47.422Z,102570.34
2023-01-26T08:21:15.985Z,102576.78
2023-01-26T08:23:43.799Z,102566.72
2023-01-26T08:26:12.665Z,102573.78
2023-01-26T08:28:40.195Z,102580.06
2023-01-26T08:31:11.471Z,102572.72
2023-01-26T08:33:39.460Z,102582.97
2023-01-26T08:36:08.522Z,102583.31
2023-01-26T08:38:36.137Z,102587.19
2023-01-26T08:41:03.967Z,102596.19
2023-01-26T08:43:31.442Z,102591.16
2023-01-26T08:45:59.021Z,102592.72
2023-01-26T08:48:26.589Z,102593.84
2023-01-26T08:50:57.522Z,102587.44
2023-01-26T08:53:25.327Z,102559.81
2023-01-26T08:55:53.141Z,102590.19
2023-01-26T08:58:21.479Z,102590.03
2023-01-26T09:00:49.195Z,102601.13
2023-01-26T09:03:16.757Z,102597.91
2023-01-26T09:05:44.283Z,102602.75
2023-01-26T09:08:12.278Z,102605.13
2023-01-26T09:10:40.004Z,102605.63
2023-01-26T09:13:07.434Z,102603.44
2023-01-26T09:15:34.835Z,102609.13
2023-01-26T09:18:03.786Z,102607.16
2023-01-26T09:20:33.788Z,102602.69
2023-01-26T09:23:03.769Z,102599.03
2023-01-26T09:25:31.590Z,102615.22
2023-01-26T09:27:59.396Z,102613.81
2023-01-26T09:30:26.983Z,102606.81
2023-01-26T09:32:58.653Z,102616.88
2023-01-26T09:35:26.102Z,102614.22
2023-01-26T09:37:55.260Z,102614.06
2023-01-26T09:40:25.763Z,102621.47
2023-01-26T09:43:09.960Z,102624.19
2023-01-26T09:45:44.663Z,102628.16
2023-01-26T09:48:12.134Z,102626.66
2023-01-26T09:50:39.566Z,102620.53
2023-01-26T09:53:25.622Z,102623.94
2023-01-26T09:55:53.150Z,102618.63
2023-01-26T09:58:31.351Z,102625.69
2023-01-26T10:01:01.100Z,102621.91
2023-01-26T10:03:31.348Z,102617.03
2023-01-26T10:06:21.476Z,102590.81
2023-01-26T10:08:49.614Z,102609.25
2023-01-26T10:11:20.817Z,102621.72
2023-01-26T10:14:00.301Z,102628.16
2023-01-26T10:16:27.930Z,102615.81
2023-01-26T10:19:01.479Z,102625.09
2023-01-26T10:21:32.874Z,102621.97
2023-01-26T10:24:01.752Z,102615.97
2023-01-26T10:26:32.050Z,102612.97
2023-01-26T10:28:59.861Z,102605.91
2023-01-26T10:31:32.439Z,102595.25
2023-01-26T10:34:10.312Z,102608.81
2023-01-26T10:36:37.787Z,102607.44
2023-01-26T10:39:09.537Z,102609.66
2023-01-26T10:41:37.424Z,102613.28
2023-01-26T10:44:11.107Z,102607.34
2023-01-26T10:46:39.716Z,102605.09
2023-01-26T10:49:10.034Z,102613.19
2023-01-26T10:51:38.898Z,102617.91
2023-01-26T10:54:24.478Z,102613.44
2023-01-26T10:56:53.895Z,102615.91
2023-01-26T10:59:27.149Z,102618.94
2023-01-26T11:02:00.632Z,102619.06
2023-01-26T11:04:28.650Z,102613.88
2023-01-26T11:06:56.473Z,102605.03
2023-01-26T11:09:24.358Z,102604.75
2023-01-26T11:12:02.315Z,102609.28
2023-01-26T11:14:30.495Z,102612.03
2023-01-26T11:17:00.742Z,102608.44
2023-01-26T11:19:39.126Z,102598.09
2023-01-26T11:22:07.318Z,102597.31
2023-01-26T11:24:41.601Z,102593.06
2023-01-26T11:27:09.852Z,102589.63
2023-01-26T11:29:44.886Z,102596.75
2023-01-26T11:32:15.057Z,102593.72
2023-01-26T11:34:42.476Z,102584.16
2023-01-26T11:37:32.747Z,102602.03
2023-01-26T11:40:11.047Z,102597.78
2023-01-26T11:43:01.180Z,102592.72
2023-01-26T11:45:31.626Z,102589.78
2023-01-26T11:48:08.004Z,102588.06
2023-01-26T11:50:41.375Z,102583.56
2023-01-26T11:53:19.377Z,102590.91
2023-01-26T11:55:52.645Z,102585.00
2023-01-26T11:58:29.097Z,102583.28
2023-01-26T12:01:01.564Z,102573.59
2023-01-26T12:03:35.228Z,102586.13
2023-01-26T12:06:05.434Z,102578.31
2023-01-26T12:08:39.477Z,102570.84
2023-01-26T12:11:25.638Z,102572.19
2023-01-26T12:14:02.165Z,102559.81
2023-01-26T12:16:35.050Z,102564.19
2023-01-26T12:19:10.988Z,102566.91
2023-01-26T12:21:40.168Z,102558.09
2023-01-26T12:24:32.270Z,102564.41
2023-01-26T12:26:57.679Z,102562.34
2023-01-26T12:29:57.378Z,102560.28
2023-01-26T12:32:25.791Z,102551.78
2023-01-26T12:34:53.245Z,102546.38
2023-01-26T12:37:27.531Z,102542.22
2023-01-26T12:40:04.301Z,102550.00
2023-01-26T12:42:54.515Z,102541.09
2023-01-26T12:45:26.389Z,102543.81
2023-01-26T12:47:57.888Z,102534.41
2023-01-26T12:50:44.101Z,102531.47
2023-01-26T12:53:21.203Z,102535.34
2023-01-26T12:55:57.605Z,102529.72
2023-01-26T12:58:27.727Z,102525.38
2023-01-26T13:01:06.776Z,102520.31
2023-01-26T13:03:38.558Z,102515.19
2023-01-26T13:06:11.814Z,102509.56
2023-01-26T13:08:51.420Z,102505.63
2023-01-26T13:11:37.818Z,102508.94
2023-01-26T13:14:24.550Z,102500.75
2023-01-26T13:16:52.037Z,102519.41
2023-01-26T13:19:38.311Z,102508.38
2023-01-26T13:22:25.775Z,102504.31
2023-01-26T13:25:12.271Z,102509.41
2023-01-26T13:27:39.700Z,102515.31
2023-01-26T13:30:25.511Z,102520.88
2023-01-26T13:32:53.069Z,102524.50
2023-01-26T13:35:25.465Z,102525.50
2023-01-26T13:38:02.032Z,102520.59
2023-01-26T13:40:34.988Z,102522.28
2023-01-26T13:43:20.759Z,102509.06
2023-01-26T13:45:52.999Z,102514.63
2023-01-26T13:48:40.700Z,102522.06
2023-01-26T13:51:10.170Z,102517.47
2023-01-26T13:53:37.766Z,102523.19
2023-01-26T13:56:25.490Z,102529.66
2023-01-26T13:58:53.209Z,102534.34
2023-01-26T14:01:21.397Z,102523.91
2023-01-26T14:03:48.816Z,102528.63
2023-01-26T14:06:22.567Z,102518.41
2023-01-26T14:08:55.515Z,102524.09
2023-01-26T14:11:24.543Z,102524.16
2023-01-26T14:13:55.992Z,102523.28
2023-01-26T14:16:26.765Z,102525.75
2023-01-26T14:19:06.158Z,102518.66
2023-01-26T14:21:34.223Z,102522.56
2023-01-26T14:24:01.707Z,102524.97
2023-01-26T14:26:31.682Z,102517.69
2023-01-26T14:29:01.742Z,102524.00
2023-01-26T14:31:30.347Z,102529.19
2023-01-26T14:33:59.405Z,102525.44
2023-01-26T14:36:28.407Z,102527.50
2023-01-26T14:38:56.885Z,102529.78
2023-01-26T14:41:28.759Z,102530.94
2023-01-26T14:43:59.831Z,102532.78
2023-01-26T14:46:36.517Z,102527.19
2023-01-26T14:49:30.419Z,102527.41
2023-01-26T14:51:59.559Z,102530.69
2023-01-26T14:54:30.386Z,102540.84
2023-01-26T14:56:59.328Z,102537.09
2023-01-26T14:59:32.724Z,102554.06
2023-01-26T15:02:05.399Z,102543.72
2023-01-26T15:04:38.652Z,102554.78
2023-01-26T15:07:24.467Z,102546.88
2023-01-26T15:09:54.806Z,102545.91
2023-01-26T15:12:22.264Z,102540.81
2023-01-26T15:14:51.330Z,102548.66
2023-01-26T15:17:32.056Z,102548.38
2023-01-26T15:19:59.561Z,102556.13
2023-01-26T15:22:27.495Z,102550.91
2023-01-26T15:25:21.018Z,102551.81
2023-01-26T15:27:59.157Z,102548.06
2023-01-26T15:30:34.186Z,102551.28
2023-01-26T15:33:02.054Z,102547.72
2023-01-26T15:35:33.734Z,102558.00
2023-01-26T15:38:10.587Z,102555.44
2023-01-26T15:40:38.533Z,102553.53
2023-01-26T15:43:15.676Z,102557.81
2023-01-26T15:45:48.095Z,102564.53
2023-01-26T15:48:15.621Z,102568.16
2023-01-26T15:50:43.097Z,102565.34
2023-01-26T15:53:14.082Z,102569.91
2023-01-26T15:55:41.901Z,102566.56
2023-01-26T15:58:09.343Z,102561.81
2023-01-26T16:00:37.473Z,102566.69
2023-01-26T16:03:07.083Z,102569.34
2023-01-26T16:05:34.596Z,102567.34
2023-01-26T16:08:02.040Z,102569.69
2023-01-26T16:10:29.513Z,102572.22
2023-01-26T16:12:57.018Z,102567.19
2023-01-26T16:15:39.806Z,102572.34
2023-01-26T16:18:07.314Z,102568.34
2023-01-26T16:20:35.154Z,102568.44
2023-01-26T16:23:02.620Z,102572.91
2023-01-26T16:25:31.462Z,102585.34
2023-01-26T16:28:00.130Z,102579.81
2023-01-26T16:30:27.675Z,102573.75
2023-01-26T16:32:55.082Z,102578.78
2023-01-26T16:35:23.642Z,102570.22
2023-01-26T16:37:51.606Z,102572.81
2023-01-26T16:40:19.877Z,102579.75
2023-01-26T16:42:54.382Z,102572.00
2023-01-26T16:45:24.153Z,102576.09
2023-01-26T16:47:54.887Z,102568.56
2023-01-26T16:50:26.001Z,102573.88
2023-01-26T16:52:53.765Z,102575.41
2023-01-26T16:55:21.373Z,102571.22
2023-01-26T16:57:49.856Z,102573.75
2023-01-26T17:00:18.906Z,102572.69
2023-01-26T17:02:48.702Z,102575.97
2023-01-26T17:05:17.521Z,102579.47
2023-01-26T17:07:45.078Z,102575.00
2023-01-26T17:10:13.595Z,102571.63
2023-01-26T17:12:41.555Z,102578.41
2023-01-26T17:15:11.237Z,102578.19
2023-01-26T17:17:39.023Z,102584.97
2023-01-26T17:20:18.462Z,102579.81
2023-01-26T17:22:46.764Z,102575.47
2023-01-26T17:25:16.666Z,102570.88
2023-01-26T17:27:46.105Z,102567.59
2023-01-26T17:30:13.936Z,102570.88
2023-01-26T17:32:42.694Z,102571.00
2023-01-26T17:35:10.798Z,102572.63
2023-01-26T17:37:39.461Z,102567.59
2023-01-26T17:40:07.776Z,102577.09
2023-01-26T17:42:36.341Z,102570.59
2023-01-26T17:45:04.978Z,102571.84
2023-01-26T17:47:33.274Z,102568.22
2023-01-26T17:50:01.349Z,102569.84
2023-01-26T17:52:29.075Z,102566.25
2023-01-26T17:54:56.529Z,102567.53
2023-01-26T17:57:23.948Z,102565.06
2023-01-26T17:59:51.437Z,102564.94
2023-01-26T18:02:18.893Z,102558.00
2023-01-26T18:04:46.320Z,102568.44
2023-01-26T18:07:13.771Z,102572.13
2023-01-26T18:09:41.226Z,102569.84
2023-01-26T18:12:08.676Z,102573.38
2023-01-26T18:14:36.121Z,102578.19
2023-01-26T18:17:03.589Z,102566.75
2023-01-26T18:19:31.066Z,102570.47
2023-01-26T18:21:58.464Z,102568.16
2023-01-26T18:24:25.927Z,102570.31
2023-01-26T18:26:53.366Z,102566.81
2023-01-26T18:29:20.816Z,102565.19
2023-01-26T18:31:48.943Z,102561.53
2023-01-26T18:34:16.461Z,102568.47
2023-01-26T18:36:43.922Z,102567.59
2023-01-26T18:39:13.365Z,102570.16
2023-01-26T18:41:43.175Z,102567.72
2023-01-26T18:44:10.719Z,102574.16
2023-01-26T18:46:38.740Z,102566.06
2023-01-26T18:49:06.211Z,102576.53
2023-01-26T18:51:35.455Z,102558.44
2023-01-26T18:54:04.053Z,102566.19
2023-01-26T18:56:32.289Z,102566.97
2023-01-26T18:59:00.260Z,102562.69
2023-01-26T19:01:27.834Z,102556.56
2023-01-26T19:03:55.938Z,102561.47
2023-01-26T19:06:24.596Z,102554.97
2023-01-26T19:09:00.656Z,102559.41
2023-01-26T19:11:29.793Z,102558.38
2023-01-26T19:13:57.934Z,102561.16
2023-01-26T19:16:26.253Z,102554.34
2023-01-26T19:18:54.412Z,102563.13
2023-01-26T19:21:24.591Z,102560.66
2023-01-26T19:23:53.375Z,102567.72
2023-01-26T19:26:22.317Z,102560.91
2023-01-26T19:28:51.214Z,102557.53
2023-01-26T19:31:19.765Z,102565.69
2023-01-26T19:33:51.029Z,102568.59
2023-01-26T19:36:19.292Z,102571.22
2023-01-26T19:38:47.682Z,102579.31
2023-01-26T19:41:15.745Z,102580.91
2023-01-26T19:43:44.545Z,102592.09
2023-01-26T19:46:16.248Z,102591.41
2023-01-26T19:48:44.970Z,102584.59
2023-01-26T19:51:22.269Z,102591.47
2023-01-26T19:53:51.667Z,102581.63
2023-01-26T19:56:21.497Z,102585.19
2023-01-26T19:59:00.273Z,102580.19
2023-01-26T20:01:29.166Z,102581.03
2023-01-26T20:03:59.191Z,102586.97
2023-01-26T20:06:28.749Z,102588.59
2023-01-26T20:08:57.308Z,102596.16
2023-01-26T20:11:27.521Z,102591.22
2023-01-26T20:14:02.792Z,102593.78
2023-01-26T20:16:31.894Z,102596.09
2023-01-26T20:19:00.327Z,102589.16
2023-01-26T20:21:29.083Z,102587.72
2023-01-26T20:23:57.034Z,102587.81
2023-01-26T20:26:26.722Z,102583.47
2023-01-26T20:28:57.996Z,102585.66
2023-01-26T20:31:26.548Z,102594.19
2023-01-26T20:33:54.540Z,102583.06
2023-01-26T20:36:24.252Z,102576.94
2023-01-26T20:38:52.244Z,102580.88
2023-01-26T20:41:23.099Z,102584.69
2023-01-26T20:43:59.635Z,102560.91
2023-01-26T20:46:30.390Z,102589.16
2023-01-26T20:48:58.216Z,102589.09
2023-01-26T20:51:29.584Z,102552.63
2023-01-26T20:53:57.922Z,102555.59
2023-01-26T20:56:26.390Z,102531.16
2023-01-26T20:58:55.141Z,102582.94
2023-01-26T21:01:24.120Z,102585.09
2023-01-26T21:03:52.492Z,102596.06
2023-01-26T21:06:21.529Z,102591.50
2023-01-26T21:08:50.124Z,102601.66
2023-01-26T21:11:18.342Z,102585.03
2023-01-26T21:13:45.912Z,102583.78
2023-01-26T21:16:15.251Z,102581.84
2023-01-26T21:18:43.116Z,102591.19
2023-01-26T21:21:12.185Z,102580.06
2023-01-26T21:23:39.630Z,102582.22
2023-01-26T21:26:08.414Z,102571.00
2023-01-26T21:28:36.077Z,102577.03
2023-01-26T21:31:07.741Z,102569.72
2023-01-26T21:33:36.993Z,102567.81
2023-01-26T21:36:05.255Z,102570.38
2023-01-26T21:38:33.749Z,102567.25
2023-01-26T21:41:25.940Z,102563.06
2023-01-26T21:44:12.276Z,102566.97
2023-01-26T21:46:39.923Z,102565.81
2023-01-26T21:49:07.876Z,102571.41
2023-01-26T21:51:53.151Z,102580.63
2023-01-26T21:54:20.604Z,102565.28
2023-01-26T21:56:48.011Z,102574.50
2023-01-26T21:59:15.675Z,102579.81
2023-01-26T22:01:45.805Z,102572.75
2023-01-26T22:04:15.312Z,102573.00
2023-01-26T22:06:42.909Z,102585.13
2023-01-26T22:09:11.773Z,102585.13
2023-01-26T22:11:39.636Z,102589.03
2023-01-26T22:14:07.608Z,102583.63
2023-01-26T22:16:35.167Z,102574.34
2023-01-26T22:19:03.968Z,102582.13
2023-01-26T22:21:32.606Z,102577.56
2023-01-26T22:24:00.029Z,102579.63
2023-01-26T22:26:27.514Z,102578.91
2023-01-26T22:28:55.835Z,102582.44
2023-01-26T22:31:27.787Z,102581.25
2023-01-26T22:33:55.811Z,102583.16
2023-01-26T22:36:23.720Z,102574.09
2023-01-26T22:38:52.089Z,102570.38
2023-01-26T22:41:23.657Z,102576.91
2023-01-26T22:43:52.014Z,102582.38
2023-01-26T22:46:20.479Z,102576.91
2023-01-26T22:48:47.863Z,102577.06
2023-01-26T22:51:18.176Z,102584.81
2023-01-26T22:53:46.030Z,102578.81
2023-01-26T22:56:13.689Z,102581.25
2023-01-26T22:58:56.615Z,102587.03
2023-01-26T23:01:25.779Z,102580.06
2023-01-26T23:03:53.987Z,102582.78
2023-01-26T23:06:21.792Z,102582.38
2023-01-26T23:08:49.261Z,102586.44
2023-01-26T23:11:24.135Z,102595.81
2023-01-26T23:13:52.418Z,102591.75
2023-01-26T23:16:21.291Z,102589.84
2023-01-26T23:18:48.825Z,102587.41
2023-01-26T23:21:16.353Z,102585.75
2023-01-26T23:23:43.893Z,102585.09
2023-01-26T23:26:13.139Z,102581.03
2023-01-26T23:28:42.298Z,102586.72
2023-01-26T23:31:10.593Z,102579.13
2023-01-26T23:33:38.917Z,102578.16
2023-01-26T23:36:07.093Z,102574.22
2023-01-26T23:38:34.568Z,102582.63
2023-01-26T23:41:02.852Z,102578.44
2023-01-26T23:43:30.379Z,102579.66
2023-01-26T23:45:58.267Z,102578.63
2023-01-26T23:48:25.860Z,102575.19
2023-01-26T23:50:56.899Z,102575.13
2023-01-26T23:53:24.735Z,102567.59
2023-01-26T23:55:52.191Z,102582.25
2023-01-26T23:58:20.034Z,102581.03
